Terminal Aerodrome Forecast
Issued by NWS Charleston, WV

Current Version | Previous Version | Graphics & Text | Print | Product List | Glossary On
Versions: 1 2 3 4 5 6 7 8 9 10 11 12 13 14 15 16 17 18 19 20 21 22 23 24
995
FTUS41 KRLX 212320
TAFCRW
TAF
KCRW 212320Z 2200/2224 17005KT P6SM BKN040
     FM220400 VRB03KT P6SM -SHRA VCTS BKN035CB
     FM220600 VRB04KT P6SM BKN035
     FM220800 VRB03KT P6SM BKN030
     FM221100 27004KT P6SM BKN015
     FM221500 27004KT P6SM SCT035
     FM222000 29004KT P6SM SCT150=

USA.gov is the U.S. government's official web portal to all federal, state and local government web resources and services.